Time;durP1;ratioP1;P1;durP2;ratioP2;P2;SDS_P1;SDS_P2;PMS_P1;PMS_P2;Temp;Humidity;BMP_temperature;BMP_pressure;BME280_temperature;BME280_humidity;BME280_pressure;Samples;Min_cycle;Max_cycle;Signal;HPM_P1;HPM_P2
2022/07/29 00:01:31;;;;;;;10.15;4.30;;;;;;;;;;5032825;28;20461;-71
2022/07/29 00:03:56;;;;;;;6.00;4.20;;;;;;;;;;5039885;28;20024;-71
2022/07/29 00:06:21;;;;;;;9.07;3.80;;;;;;;;;;5033363;28;20032;-71
2022/07/29 00:08:46;;;;;;;6.13;3.60;;;;;;;;;;5033762;28;20034;-71
2022/07/29 00:11:12;;;;;;;9.15;3.40;;;;;;;;;;5012701;28;20036;-71
2022/07/29 00:13:37;;;;;;;6.15;3.83;;;;;;;;;;5036133;28;20056;-71
2022/07/29 00:16:02;;;;;;;7.57;3.65;;;;;;;;;;5032897;28;20036;-71
2022/07/29 00:18:28;;;;;;;8.13;3.80;;;;;;;;;;5033125;28;20021;-71
2022/07/29 00:20:53;;;;;;;4.90;3.42;;;;;;;;;;5033276;28;20026;-71
2022/07/29 00:23:18;;;;;;;8.18;3.75;;;;;;;;;;5033799;28;20390;-71
2022/07/29 00:25:44;;;;;;;5.40;3.92;;;;;;;;;;5030917;28;20445;-71
2022/07/29 00:28:09;;;;;;;11.63;3.70;;;;;;;;;;5033700;28;20029;-71
2022/07/29 00:30:34;;;;;;;9.98;4.03;;;;;;;;;;5032879;28;20087;-71
2022/07/29 00:32:59;;;;;;;7.35;3.80;;;;;;;;;;5033299;28;20033;-71
2022/07/29 00:35:43;;;;;;;6.05;3.40;;;;;;;;;;5031502;28;20127;-71
2022/07/29 00:38:08;;;;;;;6.55;3.67;;;;;;;;;;5033131;28;20033;-71
2022/07/29 00:40:34;;;;;;;6.93;3.45;;;;;;;;;;5032050;28;20104;-71
2022/07/29 00:42:59;;;;;;;6.63;3.78;;;;;;;;;;5030944;28;20034;-71
2022/07/29 00:45:24;;;;;;;6.18;3.80;;;;;;;;;;5032149;28;20060;-71
2022/07/29 00:47:50;;;;;;;6.88;3.88;;;;;;;;;;5033552;28;20061;-71
2022/07/29 00:50:15;;;;;;;5.05;3.65;;;;;;;;;;5032919;28;20064;-71
2022/07/29 00:52:42;;;;;;;7.45;3.30;;;;;;;;;;5032826;28;20040;-71
2022/07/29 00:55:09;;;;;;;6.10;3.53;;;;;;;;;;5031666;28;20029;-71
2022/07/29 00:57:34;;;;;;;8.70;3.80;;;;;;;;;;5032311;28;20488;-71
2022/07/29 01:00:00;;;;;;;6.05;3.60;;;;;;;;;;5032691;28;20022;-71
2022/07/29 01:02:25;;;;;;;9.38;3.90;;;;;;;;;;5026741;28;20056;-71
2022/07/29 01:04:50;;;;;;;7.05;3.45;;;;;;;;;;5032484;28;20029;-71
2022/07/29 01:07:17;;;;;;;6.18;3.80;;;;;;;;;;5030545;28;20465;-71
2022/07/29 01:09:43;;;;;;;5.70;3.75;;;;;;;;;;5032294;28;20026;-71
2022/07/29 01:12:09;;;;;;;6.45;3.63;;;;;;;;;;5031429;28;20575;-71
2022/07/29 01:14:34;;;;;;;7.57;3.58;;;;;;;;;;5032017;28;20124;-71
2022/07/29 01:17:02;;;;;;;5.32;3.67;;;;;;;;;;5032662;28;20076;-71
2022/07/29 01:19:34;;;;;;;6.55;3.72;;;;;;;;;;5032266;28;20026;-71
2022/07/29 01:22:07;;;;;;;7.25;3.88;;;;;;;;;;5031846;28;20403;-70
2022/07/29 01:24:32;;;;;;;7.63;3.73;;;;;;;;;;5032083;28;20091;-71
2022/07/29 01:27:26;;;;;;;10.38;4.15;;;;;;;;;;5032258;28;20746;-71
2022/07/29 01:29:56;;;;;;;7.80;3.67;;;;;;;;;;5031036;28;20025;-71
2022/07/29 01:32:26;;;;;;;5.00;3.30;;;;;;;;;;5035046;28;20041;-71
2022/07/29 01:34:54;;;;;;;6.38;3.83;;;;;;;;;;5024856;28;20040;-71
2022/07/29 01:37:25;;;;;;;7.80;3.63;;;;;;;;;;5036251;28;20404;-71
2022/07/29 01:39:52;;;;;;;7.40;3.90;;;;;;;;;;5035388;28;20064;-71
2022/07/29 01:42:26;;;;;;;6.85;3.70;;;;;;;;;;5036538;28;20060;-71
2022/07/29 01:45:10;;;;;;;6.35;3.80;;;;;;;;;;5036128;28;20116;-71
2022/07/29 01:47:46;;;;;;;4.88;3.60;;;;;;;;;;5036568;28;20108;-71
2022/07/29 01:50:14;;;;;;;6.72;3.60;;;;;;;;;;5035738;28;20025;-71
2022/07/29 01:52:43;;;;;;;5.22;3.70;;;;;;;;;;5036208;28;20068;-71
2022/07/29 01:55:13;;;;;;;5.88;3.67;;;;;;;;;;5036418;28;20092;-71
2022/07/29 01:57:40;;;;;;;8.30;4.45;;;;;;;;;;5036481;28;20143;-71
2022/07/29 02:00:06;;;;;;;6.53;4.03;;;;;;;;;;5035414;28;20473;-71
2022/07/29 02:02:32;;;;;;;7.28;3.88;;;;;;;;;;5028543;28;20025;-71
2022/07/29 02:04:58;;;;;;;7.00;4.03;;;;;;;;;;5035880;28;20046;-71
2022/07/29 02:07:25;;;;;;;5.93;3.67;;;;;;;;;;5035812;28;20025;-71
2022/07/29 02:09:51;;;;;;;7.18;3.65;;;;;;;;;;5030738;28;20033;-71
2022/07/29 02:12:17;;;;;;;7.72;3.55;;;;;;;;;;5033141;28;20030;-71
2022/07/29 02:14:47;;;;;;;6.85;3.60;;;;;;;;;;5030202;28;20060;-71
2022/07/29 02:17:13;;;;;;;8.50;4.05;;;;;;;;;;5035480;28;20037;-71
2022/07/29 02:19:40;;;;;;;7.50;3.85;;;;;;;;;;5035077;28;20487;-72
2022/07/29 02:22:06;;;;;;;9.63;3.63;;;;;;;;;;5035641;28;20033;-72
2022/07/29 02:24:33;;;;;;;8.68;3.95;;;;;;;;;;5035367;28;20033;-71
2022/07/29 02:26:59;;;;;;;8.32;4.30;;;;;;;;;;5035788;28;20113;-71
2022/07/29 02:29:27;;;;;;;7.68;3.88;;;;;;;;;;5033663;28;20049;-72
2022/07/29 02:31:54;;;;;;;7.70;3.88;;;;;;;;;;5034699;28;20427;-71
2022/07/29 02:34:21;;;;;;;5.90;3.60;;;;;;;;;;5035525;28;20030;-71
2022/07/29 02:36:46;;;;;;;7.85;3.75;;;;;;;;;;5033704;28;20537;-70
2022/07/29 02:39:12;;;;;;;5.78;3.80;;;;;;;;;;5035175;28;20112;-71
2022/07/29 02:41:48;;;;;;;6.70;4.25;;;;;;;;;;5031480;28;20087;-71
2022/07/29 02:44:15;;;;;;;5.97;4.13;;;;;;;;;;5029587;28;20037;-71
2022/07/29 02:47:03;;;;;;;6.22;4.07;;;;;;;;;;5030531;28;20040;-71
2022/07/29 02:49:46;;;;;;;9.57;4.35;;;;;;;;;;5033655;28;20037;-71
2022/07/29 02:52:15;;;;;;;11.73;4.60;;;;;;;;;;5033255;28;20037;-71
2022/07/29 02:54:43;;;;;;;9.13;4.88;;;;;;;;;;5034800;28;20037;-71
2022/07/29 02:57:13;;;;;;;14.80;5.10;;;;;;;;;;5035183;28;20124;-71
2022/07/29 02:59:41;;;;;;;7.88;5.13;;;;;;;;;;5034789;28;20093;-71
2022/07/29 03:02:08;;;;;;;8.70;5.20;;;;;;;;;;5035112;28;20408;-71
2022/07/29 03:04:34;;;;;;;10.23;5.05;;;;;;;;;;5034971;28;20091;-71
2022/07/29 03:07:00;;;;;;;11.23;5.70;;;;;;;;;;5034696;28;20453;-72
2022/07/29 03:09:27;;;;;;;11.85;5.45;;;;;;;;;;5034652;28;20041;-71
2022/07/29 03:11:54;;;;;;;12.68;6.32;;;;;;;;;;5037976;28;20091;-71
2022/07/29 03:14:19;;;;;;;10.73;5.45;;;;;;;;;;5034162;28;20076;-71
2022/07/29 03:16:45;;;;;;;14.00;6.38;;;;;;;;;;5034416;28;20086;-71
2022/07/29 03:19:10;;;;;;;10.65;6.70;;;;;;;;;;5034475;28;20427;-71
2022/07/29 03:21:36;;;;;;;11.50;6.30;;;;;;;;;;5034730;28;20029;-71
2022/07/29 03:24:01;;;;;;;12.55;6.60;;;;;;;;;;5034162;28;20048;-71
2022/07/29 03:26:26;;;;;;;12.48;6.90;;;;;;;;;;5028746;28;20069;-71
2022/07/29 03:28:52;;;;;;;12.88;7.47;;;;;;;;;;5016656;28;20044;-71
2022/07/29 03:31:17;;;;;;;11.30;7.53;;;;;;;;;;5034080;28;20022;-71
2022/07/29 03:33:42;;;;;;;12.10;6.75;;;;;;;;;;5034422;28;20130;-71
2022/07/29 03:36:08;;;;;;;13.13;7.95;;;;;;;;;;5033761;28;20025;-71
2022/07/29 03:38:35;;;;;;;10.68;7.03;;;;;;;;;;5033996;28;20377;-71
2022/07/29 03:41:03;;;;;;;13.27;7.45;;;;;;;;;;5033609;28;20064;-71
2022/07/29 03:43:30;;;;;;;15.27;7.32;;;;;;;;;;5024471;28;20057;-71
2022/07/29 03:45:56;;;;;;;13.43;7.95;;;;;;;;;;5033453;28;20049;-71
2022/07/29 03:48:24;;;;;;;16.15;8.15;;;;;;;;;;5034103;28;20037;-71
2022/07/29 03:50:50;;;;;;;15.40;8.23;;;;;;;;;;5030693;28;20116;-71
2022/07/29 03:53:15;;;;;;;17.08;8.75;;;;;;;;;;5033508;28;20045;-71
2022/07/29 03:55:42;;;;;;;17.50;8.00;;;;;;;;;;5031563;28;20036;-71
2022/07/29 03:58:08;;;;;;;12.93;7.97;;;;;;;;;;5034004;28;20072;-72
2022/07/29 04:00:34;;;;;;;14.65;8.05;;;;;;;;;;5032192;28;20033;-71
2022/07/29 04:03:00;;;;;;;13.82;7.70;;;;;;;;;;5033947;28;20026;-71
2022/07/29 04:05:25;;;;;;;17.23;8.63;;;;;;;;;;5033329;28;20484;-71
2022/07/29 04:07:51;;;;;;;15.57;8.38;;;;;;;;;;5032380;28;20083;-71
2022/07/29 04:10:16;;;;;;;15.25;8.57;;;;;;;;;;5033863;28;20142;-71
2022/07/29 04:12:42;;;;;;;14.35;8.45;;;;;;;;;;5034473;28;20064;-71
2022/07/29 04:15:08;;;;;;;16.48;8.77;;;;;;;;;;5033583;28;20477;-71
2022/07/29 04:17:33;;;;;;;14.32;7.93;;;;;;;;;;5026794;28;20442;-71
2022/07/29 04:19:58;;;;;;;13.50;8.40;;;;;;;;;;5033250;28;20022;-71
2022/07/29 04:22:24;;;;;;;13.55;8.27;;;;;;;;;;5033515;28;20495;-70
2022/07/29 04:24:49;;;;;;;13.90;7.75;;;;;;;;;;5032987;28;20025;-71
2022/07/29 04:27:14;;;;;;;14.55;7.78;;;;;;;;;;5033383;28;20053;-72
2022/07/29 04:29:40;;;;;;;15.55;8.25;;;;;;;;;;5033745;28;20028;-71
2022/07/29 04:32:05;;;;;;;15.18;8.65;;;;;;;;;;5033155;28;20032;-72
2022/07/29 04:34:30;;;;;;;18.63;8.90;;;;;;;;;;5033462;28;20100;-71
2022/07/29 04:36:56;;;;;;;17.55;8.68;;;;;;;;;;5033560;28;20152;-71
2022/07/29 04:39:21;;;;;;;16.42;8.00;;;;;;;;;;5033035;28;20075;-71
2022/07/29 04:41:47;;;;;;;16.13;8.57;;;;;;;;;;5031714;28;20525;-71
2022/07/29 04:44:12;;;;;;;16.70;9.15;;;;;;;;;;5027561;28;20033;-71
2022/07/29 04:46:37;;;;;;;17.60;8.93;;;;;;;;;;5032628;28;20064;-71
2022/07/29 04:49:03;;;;;;;16.90;9.02;;;;;;;;;;5033120;28;20083;-71
2022/07/29 04:51:28;;;;;;;14.90;9.52;;;;;;;;;;5031585;28;20095;-71
2022/07/29 04:53:53;;;;;;;20.52;9.57;;;;;;;;;;5032960;28;20033;-72
2022/07/29 04:56:19;;;;;;;18.08;8.75;;;;;;;;;;5031899;28;20022;-71
2022/07/29 04:58:44;;;;;;;14.45;8.68;;;;;;;;;;5033297;28;20029;-71
2022/07/29 05:01:09;;;;;;;18.02;9.00;;;;;;;;;;5032147;28;20120;-72
2022/07/29 05:03:35;;;;;;;15.82;9.18;;;;;;;;;;5033016;28;20028;-71
2022/07/29 05:06:00;;;;;;;17.15;9.50;;;;;;;;;;5031533;28;20055;-71
2022/07/29 05:08:25;;;;;;;18.67;9.75;;;;;;;;;;5032909;28;20473;-71
2022/07/29 05:10:50;;;;;;;18.33;10.05;;;;;;;;;;5033284;28;20025;-71
2022/07/29 05:13:16;;;;;;;16.55;8.43;;;;;;;;;;5032675;28;20116;-71
2022/07/29 05:15:41;;;;;;;16.63;8.48;;;;;;;;;;5032074;28;20380;-71
2022/07/29 05:18:07;;;;;;;13.98;7.65;;;;;;;;;;5032512;28;20028;-71
2022/07/29 05:20:33;;;;;;;11.60;7.78;;;;;;;;;;5028213;28;20466;-71
2022/07/29 05:22:59;;;;;;;12.52;7.50;;;;;;;;;;5032295;28;20049;-71
2022/07/29 05:25:25;;;;;;;13.07;7.20;;;;;;;;;;5030434;28;20060;-72
2022/07/29 05:27:51;;;;;;;10.02;6.55;;;;;;;;;;5027423;28;20096;-71
2022/07/29 05:30:16;;;;;;;13.30;7.28;;;;;;;;;;5030376;28;20037;-71
2022/07/29 05:32:41;;;;;;;12.75;6.50;;;;;;;;;;5032687;28;20029;-72
2022/07/29 05:35:07;;;;;;;10.93;6.63;;;;;;;;;;5031991;28;20401;-71
2022/07/29 05:37:33;;;;;;;10.50;6.55;;;;;;;;;;5032916;28;20452;-71
2022/07/29 05:39:58;;;;;;;10.85;6.07;;;;;;;;;;5026672;28;20101;-72
2022/07/29 05:42:24;;;;;;;9.70;6.13;;;;;;;;;;5032402;28;20457;-72
2022/07/29 05:44:49;;;;;;;12.23;6.60;;;;;;;;;;5032047;28;20439;-72
2022/07/29 05:47:15;;;;;;;12.70;6.60;;;;;;;;;;5014626;28;20021;-71
2022/07/29 05:49:41;;;;;;;9.18;5.82;;;;;;;;;;5026711;28;20377;-71
2022/07/29 05:52:06;;;;;;;15.20;5.65;;;;;;;;;;5032436;28;20032;-71
2022/07/29 05:54:31;;;;;;;15.48;6.07;;;;;;;;;;5032210;28;20472;-71
2022/07/29 05:56:57;;;;;;;10.05;6.32;;;;;;;;;;5032559;28;20100;-72
2022/07/29 05:59:22;;;;;;;16.73;5.72;;;;;;;;;;5030694;28;20025;-71
2022/07/29 06:01:47;;;;;;;11.10;5.18;;;;;;;;;;5031953;28;20022;-72
2022/07/29 06:04:13;;;;;;;7.88;4.65;;;;;;;;;;5030958;28;20440;-72
2022/07/29 06:06:38;;;;;;;8.77;4.50;;;;;;;;;;5032143;28;20036;-72
2022/07/29 06:09:03;;;;;;;6.53;4.30;;;;;;;;;;5032196;28;20048;-71
2022/07/29 06:11:29;;;;;;;4.57;3.13;;;;;;;;;;5038430;28;20029;-71
2022/07/29 06:13:54;;;;;;;5.25;2.63;;;;;;;;;;5031902;28;20051;-71
2022/07/29 06:16:19;;;;;;;4.47;2.30;;;;;;;;;;5031240;28;20048;-72
2022/07/29 06:18:44;;;;;;;3.45;2.33;;;;;;;;;;5035037;28;20026;-72
2022/07/29 06:21:10;;;;;;;4.28;2.20;;;;;;;;;;5010475;28;20065;-71
2022/07/29 06:23:39;;;;;;;3.22;1.88;;;;;;;;;;5035260;28;20457;-72
2022/07/29 06:26:05;;;;;;;3.45;1.90;;;;;;;;;;5035672;28;20033;-72
2022/07/29 06:28:30;;;;;;;4.07;1.88;;;;;;;;;;5026764;28;20037;-72
2022/07/29 06:30:56;;;;;;;3.40;1.80;;;;;;;;;;5034565;28;20024;-72
2022/07/29 06:33:21;;;;;;;4.10;2.17;;;;;;;;;;5035468;28;20044;-72
2022/07/29 06:35:47;;;;;;;3.85;1.70;;;;;;;;;;5034877;28;20781;-72
2022/07/29 06:38:12;;;;;;;3.83;1.77;;;;;;;;;;5035155;28;20041;-72
2022/07/29 06:43:24;;;;;;;2.47;1.60;;;;;;;;;;5034869;28;20083;-72
2022/07/29 06:45:49;;;;;;;6.45;1.90;;;;;;;;;;5029083;28;20104;-72
2022/07/29 06:48:14;;;;;;;2.92;1.63;;;;;;;;;;5035556;28;20040;-73
2022/07/29 06:50:39;;;;;;;3.35;1.73;;;;;;;;;;5033319;28;20022;-73
2022/07/29 06:53:05;;;;;;;6.35;2.00;;;;;;;;;;5014753;28;20030;-72
2022/07/29 06:55:31;;;;;;;3.13;1.63;;;;;;;;;;5035111;28;20056;-73
2022/07/29 06:57:56;;;;;;;5.25;1.83;;;;;;;;;;5035446;28;20041;-72
2022/07/29 07:00:21;;;;;;;4.40;1.90;;;;;;;;;;5035236;28;20061;-72
2022/07/29 07:02:46;;;;;;;3.97;1.80;;;;;;;;;;5033440;28;20031;-72
2022/07/29 07:05:12;;;;;;;4.03;2.00;;;;;;;;;;5034877;28;20064;-72
2022/07/29 07:07:37;;;;;;;3.40;1.60;;;;;;;;;;5035131;28;20029;-73
2022/07/29 07:10:03;;;;;;;4.40;2.08;;;;;;;;;;5034985;28;20037;-72
2022/07/29 07:12:28;;;;;;;6.05;1.98;;;;;;;;;;5017052;28;20033;-73
2022/07/29 07:14:53;;;;;;;4.25;2.00;;;;;;;;;;5032410;28;20042;-73
2022/07/29 07:17:19;;;;;;;4.07;2.00;;;;;;;;;;5033291;28;20030;-72
2022/07/29 07:19:44;;;;;;;5.07;2.10;;;;;;;;;;5033571;28;20037;-72
2022/07/29 07:22:10;;;;;;;3.47;1.67;;;;;;;;;;5033817;28;20477;-72
2022/07/29 07:24:35;;;;;;;7.35;2.08;;;;;;;;;;5033593;28;20392;-73
2022/07/29 07:27:01;;;;;;;8.45;2.15;;;;;;;;;;5034656;28;20031;-73
2022/07/29 07:29:26;;;;;;;4.63;2.10;;;;;;;;;;5034145;28;20022;-73
2022/07/29 07:31:52;;;;;;;8.43;2.40;;;;;;;;;;5034657;28;20040;-73
2022/07/29 07:34:17;;;;;;;5.90;2.20;;;;;;;;;;5034349;28;20108;-72
2022/07/29 07:36:43;;;;;;;7.28;2.55;;;;;;;;;;5032370;28;20032;-73
2022/07/29 07:39:08;;;;;;;9.02;2.20;;;;;;;;;;5034508;28;20033;-72
2022/07/29 07:41:33;;;;;;;7.05;2.10;;;;;;;;;;5034357;28;20021;-74
2022/07/29 07:43:59;;;;;;;4.95;2.30;;;;;;;;;;5034683;28;20021;-74
2022/07/29 07:46:24;;;;;;;5.57;2.10;;;;;;;;;;5034185;28;20097;-71
2022/07/29 07:48:49;;;;;;;5.72;2.03;;;;;;;;;;5033777;28;20021;-71
2022/07/29 07:51:15;;;;;;;6.25;1.90;;;;;;;;;;5030385;28;20389;-70
2022/07/29 07:53:40;;;;;;;6.45;2.00;;;;;;;;;;5031237;28;20043;-71
2022/07/29 07:56:06;;;;;;;6.65;1.98;;;;;;;;;;5033462;28;20021;-72
2022/07/29 07:58:31;;;;;;;6.25;2.15;;;;;;;;;;5031884;28;20113;-71
2022/07/29 08:00:56;;;;;;;3.72;1.77;;;;;;;;;;5023164;28;20021;-71
2022/07/29 08:03:22;;;;;;;6.53;2.20;;;;;;;;;;5030211;28;20547;-71
2022/07/29 08:05:48;;;;;;;7.40;1.90;;;;;;;;;;5034033;28;20029;-71
2022/07/29 08:08:13;;;;;;;5.38;1.80;;;;;;;;;;5033796;28;20037;-71
2022/07/29 08:10:55;;;;;;;6.43;2.13;;;;;;;;;;5034105;28;20013;-72
2022/07/29 08:13:21;;;;;;;9.40;2.25;;;;;;;;;;5033493;28;20065;-71
2022/07/29 08:15:46;;;;;;;4.20;1.80;;;;;;;;;;5032866;28;20037;-72
2022/07/29 08:18:12;;;;;;;9.07;2.10;;;;;;;;;;5028229;28;20029;-72
2022/07/29 08:20:38;;;;;;;6.55;2.00;;;;;;;;;;5015318;28;20025;-71
2022/07/29 08:23:05;;;;;;;7.38;2.03;;;;;;;;;;5030364;28;20031;-71
2022/07/29 08:25:31;;;;;;;5.10;2.10;;;;;;;;;;5029961;28;20428;-72
2022/07/29 08:27:56;;;;;;;6.18;2.08;;;;;;;;;;5028795;28;20021;-71
2022/07/29 08:30:22;;;;;;;7.47;2.20;;;;;;;;;;5029878;28;20076;-71
2022/07/29 08:32:47;;;;;;;5.95;2.28;;;;;;;;;;5029588;28;20046;-71
2022/07/29 08:35:13;;;;;;;9.98;2.03;;;;;;;;;;5030383;28;20022;-72
2022/07/29 08:37:38;;;;;;;5.97;1.88;;;;;;;;;;5029822;28;20036;-71
2022/07/29 08:40:04;;;;;;;6.43;2.05;;;;;;;;;;5035862;28;20032;-71
2022/07/29 08:42:29;;;;;;;8.50;2.38;;;;;;;;;;5029438;28;20034;-72
2022/07/29 08:44:56;;;;;;;9.45;2.13;;;;;;;;;;5030048;28;20044;-71
2022/07/29 08:47:22;;;;;;;4.93;2.30;;;;;;;;;;5018085;28;21041;-71
2022/07/29 08:49:48;;;;;;;7.07;2.10;;;;;;;;;;5022841;28;20108;-72
2022/07/29 08:52:13;;;;;;;7.13;2.13;;;;;;;;;;5028076;28;20495;-72
2022/07/29 08:54:39;;;;;;;9.52;2.00;;;;;;;;;;5029456;28;20029;-72
2022/07/29 08:57:05;;;;;;;6.32;2.17;;;;;;;;;;5029139;28;20024;-73
2022/07/29 08:59:31;;;;;;;7.78;2.47;;;;;;;;;;5028367;28;20040;-71
2022/07/29 09:01:59;;;;;;;9.95;2.33;;;;;;;;;;5027881;28;20024;-71
2022/07/29 09:04:24;;;;;;;6.90;2.40;;;;;;;;;;5025650;28;20057;-72
2022/07/29 09:06:51;;;;;;;5.40;2.10;;;;;;;;;;4998900;28;20131;-71
2022/07/29 09:09:17;;;;;;;7.78;2.60;;;;;;;;;;5026445;28;20484;-72
2022/07/29 09:11:42;;;;;;;12.52;2.40;;;;;;;;;;5028601;28;20026;-71
2022/07/29 09:14:08;;;;;;;8.15;2.00;;;;;;;;;;5028403;28;20057;-72
2022/07/29 09:16:52;;;;;;;7.68;2.60;;;;;;;;;;5029096;28;20026;-71
2022/07/29 09:19:22;;;;;;;8.93;2.40;;;;;;;;;;5016207;28;20049;-71
2022/07/29 09:22:00;;;;;;;9.20;2.33;;;;;;;;;;5021986;28;20057;-71
2022/07/29 09:24:35;;;;;;;8.13;2.42;;;;;;;;;;5013576;28;20025;-71
2022/07/29 09:27:00;;;;;;;11.32;2.40;;;;;;;;;;5020503;28;20456;-71
2022/07/29 09:29:27;;;;;;;8.88;2.13;;;;;;;;;;5019006;28;20060;-72
2022/07/29 09:31:53;;;;;;;6.85;2.20;;;;;;;;;;5021427;28;20037;-71
2022/07/29 09:34:26;;;;;;;6.30;2.28;;;;;;;;;;5018898;28;20389;-71
2022/07/29 09:36:51;;;;;;;12.20;2.40;;;;;;;;;;5021281;28;20026;-71
2022/07/29 09:39:26;;;;;;;5.78;2.20;;;;;;;;;;5020239;28;21159;-71
2022/07/29 09:41:53;;;;;;;38.88;3.25;;;;;;;;;;5023684;28;20030;-71
2022/07/29 09:44:19;;;;;;;10.98;2.30;;;;;;;;;;5022378;28;20041;-72
2022/07/29 09:47:08;;;;;;;7.60;1.85;;;;;;;;;;5022085;28;20105;-71
2022/07/29 09:49:33;;;;;;;4.68;2.20;;;;;;;;;;5014840;28;20088;-71
2022/07/29 09:52:00;;;;;;;5.15;2.25;;;;;;;;;;5023048;28;20026;-71
2022/07/29 09:54:27;;;;;;;6.30;2.08;;;;;;;;;;5025818;28;20107;-72
2022/07/29 09:56:53;;;;;;;7.55;2.50;;;;;;;;;;5024783;28;20488;-70
2022/07/29 09:59:20;;;;;;;10.27;2.10;;;;;;;;;;5023678;28;20048;-71
2022/07/29 10:01:45;;;;;;;7.03;2.25;;;;;;;;;;5029554;28;20013;-71
2022/07/29 10:04:11;;;;;;;8.13;2.30;;;;;;;;;;5030126;28;20029;-71
2022/07/29 10:06:54;;;;;;;11.13;2.53;;;;;;;;;;5025158;28;20093;-72
2022/07/29 10:09:20;;;;;;;9.32;2.30;;;;;;;;;;5022679;28;20124;-71
2022/07/29 10:12:01;;;;;;;10.20;2.35;;;;;;;;;;5028365;28;20851;-72
2022/07/29 10:14:27;;;;;;;4.57;2.00;;;;;;;;;;5028544;28;20564;-71
2022/07/29 10:16:53;;;;;;;3.92;1.70;;;;;;;;;;5026928;28;20041;-71
2022/07/29 10:19:19;;;;;;;7.75;2.20;;;;;;;;;;5027547;28;20045;-70
2022/07/29 10:21:44;;;;;;;9.48;2.55;;;;;;;;;;5032041;28;20036;-71
2022/07/29 10:24:10;;;;;;;7.07;2.20;;;;;;;;;;5031197;28;20037;-71
2022/07/29 10:26:36;;;;;;;5.90;2.20;;;;;;;;;;5012231;28;20131;-71
2022/07/29 10:29:02;;;;;;;10.55;2.40;;;;;;;;;;5030152;28;20037;-71
2022/07/29 10:31:38;;;;;;;7.28;2.53;;;;;;;;;;5031581;28;20033;-71
2022/07/29 10:34:28;;;;;;;6.45;1.98;;;;;;;;;;5030637;28;20096;-71
2022/07/29 10:36:56;;;;;;;11.57;2.47;;;;;;;;;;5031606;28;20088;-70
2022/07/29 10:39:35;;;;;;;5.72;1.98;;;;;;;;;;5028356;28;20409;-72
2022/07/29 10:42:09;;;;;;;9.57;2.38;;;;;;;;;;5039270;28;20503;-71
2022/07/29 10:44:35;;;;;;;7.95;2.17;;;;;;;;;;5035190;28;20061;-70
2022/07/29 10:47:00;;;;;;;9.45;2.50;;;;;;;;;;5030837;28;20388;-71
2022/07/29 10:49:26;;;;;;;6.10;2.10;;;;;;;;;;5029784;28;20104;-72
2022/07/29 10:51:52;;;;;;;11.50;2.30;;;;;;;;;;5031512;28;20025;-74
2022/07/29 10:54:17;;;;;;;8.43;2.47;;;;;;;;;;5031619;28;20188;-72
2022/07/29 10:56:42;;;;;;;8.05;2.53;;;;;;;;;;5032676;28;20025;-72
2022/07/29 10:59:20;;;;;;;10.40;2.30;;;;;;;;;;5037481;28;20025;-73
2022/07/29 11:01:49;;;;;;;8.38;2.50;;;;;;;;;;5035460;28;20515;-72
2022/07/29 11:04:15;;;;;;;7.97;2.25;;;;;;;;;;5030366;28;20484;-73
2022/07/29 11:06:59;;;;;;;8.13;2.13;;;;;;;;;;5031636;28;20037;-72
2022/07/29 11:09:25;;;;;;;5.72;1.90;;;;;;;;;;5021623;28;20029;-72
2022/07/29 11:11:50;;;;;;;6.20;1.90;;;;;;;;;;5024552;28;20037;-72
2022/07/29 11:14:17;;;;;;;10.43;1.80;;;;;;;;;;5025687;28;20394;-72
2022/07/29 11:17:02;;;;;;;4.68;1.55;;;;;;;;;;5024803;28;20365;-72
2022/07/29 11:19:28;;;;;;;8.68;1.92;;;;;;;;;;5021790;28;20041;-72
2022/07/29 11:21:53;;;;;;;8.98;2.00;;;;;;;;;;5026127;28;20030;-72
2022/07/29 11:24:18;;;;;;;7.30;1.63;;;;;;;;;;5026753;28;20107;-72
2022/07/29 11:26:44;;;;;;;6.18;1.98;;;;;;;;;;5025057;28;20136;-71
2022/07/29 11:29:16;;;;;;;7.63;2.00;;;;;;;;;;5016952;28;20156;-72
2022/07/29 11:31:43;;;;;;;5.57;2.33;;;;;;;;;;5027980;28;20483;-71
2022/07/29 11:34:29;;;;;;;4.50;1.50;;;;;;;;;;5026912;28;20041;-72
2022/07/29 11:37:06;;;;;;;9.43;2.00;;;;;;;;;;5032896;28;20127;-72
2022/07/29 11:39:32;;;;;;;5.18;1.90;;;;;;;;;;5033104;28;20068;-72
2022/07/29 11:42:16;;;;;;;3.28;1.60;;;;;;;;;;5024073;28;20163;-72
2022/07/29 11:44:58;;;;;;;7.35;1.95;;;;;;;;;;5031670;28;20045;-72
2022/07/29 11:47:27;;;;;;;4.35;1.70;;;;;;;;;;5022565;28;20118;-72
2022/07/29 11:49:54;;;;;;;4.07;1.80;;;;;;;;;;5025872;28;20042;-72
2022/07/29 11:52:19;;;;;;;5.97;1.50;;;;;;;;;;5020738;28;20025;-72
2022/07/29 11:54:46;;;;;;;6.03;1.50;;;;;;;;;;5024353;28;20079;-72
2022/07/29 11:57:12;;;;;;;11.73;1.85;;;;;;;;;;5023222;28;20036;-72
2022/07/29 11:59:44;;;;;;;4.50;1.67;;;;;;;;;;5021342;28;20445;-72
2022/07/29 12:02:10;;;;;;;5.70;1.63;;;;;;;;;;5025106;28;20037;-72
2022/07/29 12:04:48;;;;;;;6.35;1.70;;;;;;;;;;5024070;28;20029;-72
2022/07/29 12:07:13;;;;;;;5.43;2.08;;;;;;;;;;5025724;28;20048;-72
2022/07/29 12:09:39;;;;;;;3.58;1.60;;;;;;;;;;5013726;28;20037;-72
2022/07/29 12:12:04;;;;;;;5.13;1.60;;;;;;;;;;5019714;28;20092;-72
2022/07/29 12:14:30;;;;;;;4.57;1.60;;;;;;;;;;5023872;28;20501;-72
2022/07/29 12:16:56;;;;;;;4.18;1.60;;;;;;;;;;5023655;28;20603;-72
2022/07/29 12:19:21;;;;;;;4.30;1.50;;;;;;;;;;5020140;28;20026;-72
2022/07/29 12:21:47;;;;;;;4.30;1.33;;;;;;;;;;5024778;28;20476;-72
2022/07/29 12:24:13;;;;;;;6.55;1.60;;;;;;;;;;5024171;28;20047;-72
2022/07/29 12:26:50;;;;;;;7.82;1.50;;;;;;;;;;5025242;28;20025;-72
2022/07/29 12:29:16;;;;;;;8.02;1.80;;;;;;;;;;5013098;28;20042;-72
2022/07/29 12:31:42;;;;;;;7.53;1.40;;;;;;;;;;5023845;28;20496;-72
2022/07/29 12:34:07;;;;;;;8.18;1.60;;;;;;;;;;5025559;28;20067;-72
2022/07/29 12:36:33;;;;;;;3.78;1.60;;;;;;;;;;5023147;28;20060;-72
2022/07/29 12:38:58;;;;;;;5.45;1.58;;;;;;;;;;5028909;28;20413;-72
2022/07/29 12:41:23;;;;;;;4.05;1.50;;;;;;;;;;5029591;28;20033;-71
2022/07/29 12:43:55;;;;;;;7.32;1.48;;;;;;;;;;5031261;28;20048;-72
2022/07/29 12:46:20;;;;;;;5.95;1.52;;;;;;;;;;5029257;28;20048;-72
2022/07/29 12:48:50;;;;;;;3.53;1.40;;;;;;;;;;5032019;28;20022;-72
2022/07/29 12:51:16;;;;;;;5.28;1.75;;;;;;;;;;5030688;28;20025;-72
2022/07/29 12:54:01;;;;;;;4.15;1.27;;;;;;;;;;5031979;28;20530;-72
2022/07/29 12:56:26;;;;;;;4.30;1.50;;;;;;;;;;5032922;28;20068;-71
2022/07/29 12:58:51;;;;;;;7.78;1.55;;;;;;;;;;5031995;28;20056;-72
2022/07/29 13:01:20;;;;;;;7.65;1.77;;;;;;;;;;5031791;28;20100;-72
2022/07/29 13:03:51;;;;;;;5.20;1.70;;;;;;;;;;5029081;28;20025;-72
2022/07/29 13:06:34;;;;;;;3.67;1.35;;;;;;;;;;5032591;28;20063;-72
2022/07/29 13:09:04;;;;;;;7.22;1.80;;;;;;;;;;5031845;28;20469;-72
2022/07/29 13:11:38;;;;;;;5.88;1.60;;;;;;;;;;5032293;28;20048;-72
2022/07/29 13:14:03;;;;;;;4.53;1.33;;;;;;;;;;5027613;28;20046;-72
2022/07/29 13:16:28;;;;;;;5.15;1.55;;;;;;;;;;5027819;28;20035;-71
2022/07/29 13:19:07;;;;;;;4.82;1.63;;;;;;;;;;5031831;28;20020;-72
2022/07/29 13:21:33;;;;;;;6.18;1.88;;;;;;;;;;5032942;28;20029;-72
2022/07/29 13:23:59;;;;;;;6.78;1.10;;;;;;;;;;5032057;28;20045;-73
2022/07/29 13:26:24;;;;;;;8.60;1.80;;;;;;;;;;5025110;28;20025;-72
2022/07/29 13:28:49;;;;;;;4.20;1.20;;;;;;;;;;5033242;28;20377;-71
2022/07/29 13:31:14;;;;;;;10.07;1.55;;;;;;;;;;5030266;28;20138;-72
2022/07/29 13:33:40;;;;;;;7.60;1.98;;;;;;;;;;5036850;28;20037;-72
2022/07/29 13:36:05;;;;;;;4.90;1.50;;;;;;;;;;5032890;28;20033;-72
2022/07/29 13:38:31;;;;;;;4.70;1.33;;;;;;;;;;5021223;28;20492;-72
2022/07/29 13:40:56;;;;;;;4.35;1.63;;;;;;;;;;5021083;28;20022;-71
2022/07/29 13:43:21;;;;;;;4.35;1.77;;;;;;;;;;5031675;28;20053;-72
2022/07/29 13:45:46;;;;;;;10.95;1.58;;;;;;;;;;5023959;28;20368;-71
2022/07/29 13:48:12;;;;;;;4.90;1.58;;;;;;;;;;5029756;28;20041;-71
2022/07/29 13:50:37;;;;;;;3.58;1.30;;;;;;;;;;5032384;28;20021;-72
2022/07/29 13:53:02;;;;;;;5.97;1.40;;;;;;;;;;5030287;28;20431;-71
2022/07/29 13:55:28;;;;;;;4.25;1.25;;;;;;;;;;5027376;28;20027;-72
2022/07/29 13:57:53;;;;;;;3.30;1.30;;;;;;;;;;5036660;28;20042;-71
2022/07/29 14:00:19;;;;;;;6.72;1.63;;;;;;;;;;5025750;28;20055;-70
2022/07/29 14:02:44;;;;;;;4.43;1.35;;;;;;;;;;5029466;28;20052;-72
2022/07/29 14:05:09;;;;;;;3.67;1.42;;;;;;;;;;5030765;28;20087;-71
2022/07/29 14:07:35;;;;;;;5.82;1.50;;;;;;;;;;5036200;28;20029;-72
2022/07/29 14:10:01;;;;;;;5.65;1.38;;;;;;;;;;5028925;28;20080;-71
2022/07/29 14:12:26;;;;;;;4.07;1.60;;;;;;;;;;5031618;28;20075;-71
2022/07/29 14:14:51;;;;;;;4.28;1.60;;;;;;;;;;5040389;28;20051;-72
2022/07/29 14:17:17;;;;;;;4.45;1.45;;;;;;;;;;5035662;28;20028;-71
2022/07/29 14:19:42;;;;;;;3.33;1.40;;;;;;;;;;5030962;28;20775;-71
2022/07/29 14:22:08;;;;;;;5.82;1.50;;;;;;;;;;5036061;28;20041;-71
2022/07/29 14:24:34;;;;;;;3.40;1.40;;;;;;;;;;5034215;28;20055;-71
2022/07/29 14:26:59;;;;;;;5.15;1.38;;;;;;;;;;5032341;28;20029;-71
2022/07/29 14:29:24;;;;;;;4.03;1.30;;;;;;;;;;5029252;28;20051;-71
2022/07/29 14:31:50;;;;;;;6.75;1.55;;;;;;;;;;5025341;28;20044;-71
2022/07/29 14:34:15;;;;;;;6.47;1.60;;;;;;;;;;5025687;28;20049;-71
2022/07/29 14:36:41;;;;;;;8.98;1.80;;;;;;;;;;5021529;28;20488;-72
2022/07/29 14:39:06;;;;;;;7.82;1.45;;;;;;;;;;5031189;28;20376;-71
2022/07/29 14:41:32;;;;;;;4.32;1.30;;;;;;;;;;5032060;28;20112;-71
2022/07/29 14:44:00;;;;;;;4.50;1.40;;;;;;;;;;5030964;28;20135;-71